Impacts METAR Board
IDs:

KRWV - Caldwell Muni, TX, US

Updated at: 0300 UTC 06 Dec 2019
Potential Impact None Slight Moderate High
Time 05/15Z 05/16Z 05/17Z 05/18Z 05/19Z 05/20Z 05/21Z 05/22Z 05/23Z 06/00Z 06/01Z 06/02Z 06/03Z
Temp54 57 64 69 71 72 73 73 72 68 65 65 66
Dewpt54 57 61 62 62 61 61 60 60 61 60 61 62
Altim30.07 30.08 30.07 30.04 30.00 29.97 29.96 29.95 29.95 29.95 29.96 29.97 29.99
VIS0.25 4 10 10 10 10 10 10 10 10 10 10 10
CIG2 2 8 17 23 28 29 -- -- -- -- -- --
CoverOVCOVCOVCBKNOVCOVCOVCCLRCLRCLRCLRCLRCLR
FltCatLIFRLIFRIFRMVFRMVFRMVFRMVFRVFRVFRVFRVFRVFRVFR
WXFGBR----------------------
WDir150160170190210190200200180190160160180
WSpd3 5 8 12 15 11 14 13 11 7 6 7 9
WGst-- -- -- -- 22 18 -- -- -- -- -- -- --
Raw hourly METARs
KRWV 051455Z AUTO 15003KT 1/4SM FG OVC002 12/12 A3007 RMK AO2 T01230123
KRWV 051555Z AUTO 16005KT 4SM BR OVC002 14/14 A3008 RMK AO2 T01400140
KRWV 051655Z AUTO 17008KT 10SM OVC008 17/16 A3007 RMK AO2 T01750163
KRWV 051755Z AUTO 19012KT 10SM BKN017 BKN022 BKN027 21/17 A3004 RMK AO2 T02070166 10213 20096
KRWV 051855Z AUTO 21015G22KT 10SM BKN023 OVC030 22/16 A3000 RMK AO2 T02170164
KRWV 051955Z AUTO 19011G18KT 10SM BKN028 OVC033 22/16 A2997 RMK AO2 T02240161
KRWV 052055Z AUTO 20014KT 10SM OVC029 22/16 A2996 RMK AO2 T02250159
KRWV 052155Z AUTO 20013KT 10SM CLR 23/16 A2995 RMK AO2 T02270155
KRWV 052255Z AUTO 18011KT 10SM CLR 22/16 A2995 RMK AO2 T02200158
KRWV 052355Z AUTO 19007KT 10SM CLR 20/16 A2995 RMK AO2 T02000159 10241 20199 402410080
KRWV 060055Z AUTO 16006KT 10SM CLR 19/16 A2996 RMK AO2 T01860158
KRWV 060155Z AUTO 16007KT 10SM CLR 19/16 A2997 RMK AO2 T01860162
KRWV 060255Z AUTO 18009KT 10SM CLR 19/17 A2999 RMK AO2 T01890166